sensor_id;sensor_type;location;lat;lon;timestamp;temperature;humidity
43651;DHT22;29247;50.944;5.382;2023-03-11T00:00:26;3.60;85.90
43651;DHT22;29247;50.944;5.382;2023-03-11T00:02:54;3.60;85.20
43651;DHT22;29247;50.944;5.382;2023-03-11T00:05:28;3.60;85.90
43651;DHT22;29247;50.944;5.382;2023-03-11T00:07:57;3.50;85.20
43651;DHT22;29247;50.944;5.382;2023-03-11T00:10:26;3.50;85.20
43651;DHT22;29247;50.944;5.382;2023-03-11T00:12:53;3.50;85.30
43651;DHT22;29247;50.944;5.382;2023-03-11T00:15:19;3.50;85.30
43651;DHT22;29247;50.944;5.382;2023-03-11T00:17:49;3.50;85.30
43651;DHT22;29247;50.944;5.382;2023-03-11T00:20:21;3.40;85.30
43651;DHT22;29247;50.944;5.382;2023-03-11T00:22:47;3.40;85.30
43651;DHT22;29247;50.944;5.382;2023-03-11T00:25:16;3.50;85.40
43651;DHT22;29247;50.944;5.382;2023-03-11T00:27:42;3.40;85.30
43651;DHT22;29247;50.944;5.382;2023-03-11T00:30:13;3.40;85.30
43651;DHT22;29247;50.944;5.382;2023-03-11T00:32:41;3.40;85.40
43651;DHT22;29247;50.944;5.382;2023-03-11T00:35:07;3.40;85.40
43651;DHT22;29247;50.944;5.382;2023-03-11T00:37:35;3.40;85.50
43651;DHT22;29247;50.944;5.382;2023-03-11T00:40:06;3.40;85.60
43651;DHT22;29247;50.944;5.382;2023-03-11T00:42:37;3.40;85.70
43651;DHT22;29247;50.944;5.382;2023-03-11T00:45:06;3.40;85.60
43651;DHT22;29247;50.944;5.382;2023-03-11T00:47:32;3.40;86.00
43651;DHT22;29247;50.944;5.382;2023-03-11T00:49:57;3.40;85.80
43651;DHT22;29247;50.944;5.382;2023-03-11T00:52:26;3.40;85.80
43651;DHT22;29247;50.944;5.382;2023-03-11T00:54:53;3.40;86.00
43651;DHT22;29247;50.944;5.382;2023-03-11T00:57:19;3.40;86.10
43651;DHT22;29247;50.944;5.382;2023-03-11T00:59:45;3.40;86.30
43651;DHT22;29247;50.944;5.382;2023-03-11T01:02:15;3.40;86.50
43651;DHT22;29247;50.944;5.382;2023-03-11T01:04:44;3.50;86.60
43651;DHT22;29247;50.944;5.382;2023-03-11T01:07:10;3.50;86.70
43651;DHT22;29247;50.944;5.382;2023-03-11T01:09:35;3.50;86.70
43651;DHT22;29247;50.944;5.382;2023-03-11T01:12:01;3.50;86.60
43651;DHT22;29247;50.944;5.382;2023-03-11T01:14:29;3.50;86.60
43651;DHT22;29247;50.944;5.382;2023-03-11T01:16:57;3.50;86.50
43651;DHT22;29247;50.944;5.382;2023-03-11T01:19:23;3.50;87.20
43651;DHT22;29247;50.944;5.382;2023-03-11T01:21:48;3.50;86.50
43651;DHT22;29247;50.944;5.382;2023-03-11T01:24:16;3.50;86.60
43651;DHT22;29247;50.944;5.382;2023-03-11T01:26:44;3.50;86.60
43651;DHT22;29247;50.944;5.382;2023-03-11T01:29:10;3.50;87.50
43651;DHT22;29247;50.944;5.382;2023-03-11T01:31:36;3.50;86.70
43651;DHT22;29247;50.944;5.382;2023-03-11T01:34:04;3.50;86.80
43651;DHT22;29247;50.944;5.382;2023-03-11T01:36:29;3.50;86.80
43651;DHT22;29247;50.944;5.382;2023-03-11T01:38:55;3.50;86.80
43651;DHT22;29247;50.944;5.382;2023-03-11T01:41:23;3.50;86.90
43651;DHT22;29247;50.944;5.382;2023-03-11T01:43:51;3.60;87.00
43651;DHT22;29247;50.944;5.382;2023-03-11T01:46:27;3.60;87.10
43651;DHT22;29247;50.944;5.382;2023-03-11T01:48:57;3.60;87.10
43651;DHT22;29247;50.944;5.382;2023-03-11T01:51:40;3.60;87.20
43651;DHT22;29247;50.944;5.382;2023-03-11T01:54:10;3.60;87.20
43651;DHT22;29247;50.944;5.382;2023-03-11T01:56:38;3.60;87.10
43651;DHT22;29247;50.944;5.382;2023-03-11T01:59:05;3.60;87.10
43651;DHT22;29247;50.944;5.382;2023-03-11T02:01:31;3.60;87.10
43651;DHT22;29247;50.944;5.382;2023-03-11T02:04:02;3.60;87.10
43651;DHT22;29247;50.944;5.382;2023-03-11T02:06:28;3.60;87.10
43651;DHT22;29247;50.944;5.382;2023-03-11T02:08:59;3.60;87.10
43651;DHT22;29247;50.944;5.382;2023-03-11T02:11:27;3.60;87.00
43651;DHT22;29247;50.944;5.382;2023-03-11T02:13:58;3.60;86.90
43651;DHT22;29247;50.944;5.382;2023-03-11T02:16:25;3.60;86.80
43651;DHT22;29247;50.944;5.382;2023-03-11T02:18:53;3.60;86.70
43651;DHT22;29247;50.944;5.382;2023-03-11T02:21:24;3.50;86.60
43651;DHT22;29247;50.944;5.382;2023-03-11T02:26:40;3.50;86.40
43651;DHT22;29247;50.944;5.382;2023-03-11T02:29:10;3.40;86.40
43651;DHT22;29247;50.944;5.382;2023-03-11T02:31:39;3.40;86.30
43651;DHT22;29247;50.944;5.382;2023-03-11T02:34:08;3.40;86.30
43651;DHT22;29247;50.944;5.382;2023-03-11T02:36:40;3.40;86.30
43651;DHT22;29247;50.944;5.382;2023-03-11T02:39:07;3.40;86.40
43651;DHT22;29247;50.944;5.382;2023-03-11T02:41:37;3.30;86.30
43651;DHT22;29247;50.944;5.382;2023-03-11T02:44:06;3.30;86.40
43651;DHT22;29247;50.944;5.382;2023-03-11T02:46:35;3.30;86.40
43651;DHT22;29247;50.944;5.382;2023-03-11T02:49:01;3.30;86.40
43651;DHT22;29247;50.944;5.382;2023-03-11T02:51:27;3.30;87.30
43651;DHT22;29247;50.944;5.382;2023-03-11T02:53:56;3.20;86.60
43651;DHT22;29247;50.944;5.382;2023-03-11T02:56:26;3.20;86.70
43651;DHT22;29247;50.944;5.382;2023-03-11T02:58:53;3.20;86.70
43651;DHT22;29247;50.944;5.382;2023-03-11T03:01:19;3.20;86.70
43651;DHT22;29247;50.944;5.382;2023-03-11T03:03:47;3.20;86.60
43651;DHT22;29247;50.944;5.382;2023-03-11T03:06:15;3.20;86.60
43651;DHT22;29247;50.944;5.382;2023-03-11T03:08:43;3.20;86.60
43651;DHT22;29247;50.944;5.382;2023-03-11T03:11:09;3.20;86.60
43651;DHT22;29247;50.944;5.382;2023-03-11T03:13:39;3.20;86.70
43651;DHT22;29247;50.944;5.382;2023-03-11T03:16:08;3.20;86.90
43651;DHT22;29247;50.944;5.382;2023-03-11T03:18:33;3.20;86.90
43651;DHT22;29247;50.944;5.382;2023-03-11T03:20:59;3.20;86.90
43651;DHT22;29247;50.944;5.382;2023-03-11T03:23:27;3.20;86.90
43651;DHT22;29247;50.944;5.382;2023-03-11T03:25:55;3.10;86.80
43651;DHT22;29247;50.944;5.382;2023-03-11T03:28:23;3.20;86.80
43651;DHT22;29247;50.944;5.382;2023-03-11T03:30:49;3.10;86.80
43651;DHT22;29247;50.944;5.382;2023-03-11T03:33:15;3.10;86.80
43651;DHT22;29247;50.944;5.382;2023-03-11T03:35:44;3.10;86.90
43651;DHT22;29247;50.944;5.382;2023-03-11T03:38:13;3.10;86.90
43651;DHT22;29247;50.944;5.382;2023-03-11T03:40:39;3.10;87.00
43651;DHT22;29247;50.944;5.382;2023-03-11T03:43:09;3.10;87.00
43651;DHT22;29247;50.944;5.382;2023-03-11T03:45:35;3.10;87.00
43651;DHT22;29247;50.944;5.382;2023-03-11T03:48:01;3.10;87.00
43651;DHT22;29247;50.944;5.382;2023-03-11T03:50:26;3.10;86.90
43651;DHT22;29247;50.944;5.382;2023-03-11T03:52:52;3.10;87.10
43651;DHT22;29247;50.944;5.382;2023-03-11T03:55:18;3.10;87.10
43651;DHT22;29247;50.944;5.382;2023-03-11T03:57:43;3.10;87.20
43651;DHT22;29247;50.944;5.382;2023-03-11T04:00:14;3.10;87.20
43651;DHT22;29247;50.944;5.382;2023-03-11T04:02:40;3.10;87.10
43651;DHT22;29247;50.944;5.382;2023-03-11T04:05:07;3.00;87.10
43651;DHT22;29247;50.944;5.382;2023-03-11T04:07:34;3.00;87.20
43651;DHT22;29247;50.944;5.382;2023-03-11T04:10:00;3.00;87.20
43651;DHT22;29247;50.944;5.382;2023-03-11T04:12:28;3.00;87.20
43651;DHT22;29247;50.944;5.382;2023-03-11T04:14:55;3.00;87.10
43651;DHT22;29247;50.944;5.382;2023-03-11T04:17:24;3.00;87.10
43651;DHT22;29247;50.944;5.382;2023-03-11T04:19:54;3.00;87.00
43651;DHT22;29247;50.944;5.382;2023-03-11T04:22:19;2.90;86.90
43651;DHT22;29247;50.944;5.382;2023-03-11T04:24:47;2.90;86.90
43651;DHT22;29247;50.944;5.382;2023-03-11T04:27:15;2.90;86.90
43651;DHT22;29247;50.944;5.382;2023-03-11T04:29:41;2.90;87.00
43651;DHT22;29247;50.944;5.382;2023-03-11T04:32:09;2.90;87.00
43651;DHT22;29247;50.944;5.382;2023-03-11T04:34:35;2.90;87.00
43651;DHT22;29247;50.944;5.382;2023-03-11T04:37:01;2.90;87.00
43651;DHT22;29247;50.944;5.382;2023-03-11T04:39:29;2.90;87.00
43651;DHT22;29247;50.944;5.382;2023-03-11T04:41:57;2.90;86.90
43651;DHT22;29247;50.944;5.382;2023-03-11T04:44:23;2.90;86.90
43651;DHT22;29247;50.944;5.382;2023-03-11T04:46:48;2.80;86.90
43651;DHT22;29247;50.944;5.382;2023-03-11T04:49:14;2.80;86.90
43651;DHT22;29247;50.944;5.382;2023-03-11T04:51:42;2.80;86.90
43651;DHT22;29247;50.944;5.382;2023-03-11T04:54:08;2.80;86.80
43651;DHT22;29247;50.944;5.382;2023-03-11T04:56:36;2.70;86.80
43651;DHT22;29247;50.944;5.382;2023-03-11T04:59:02;2.70;86.80
43651;DHT22;29247;50.944;5.382;2023-03-11T05:01:30;2.70;86.80
43651;DHT22;29247;50.944;5.382;2023-03-11T05:03:56;2.70;87.00
43651;DHT22;29247;50.944;5.382;2023-03-11T05:06:26;2.70;86.90
43651;DHT22;29247;50.944;5.382;2023-03-11T05:08:52;2.70;87.00
43651;DHT22;29247;50.944;5.382;2023-03-11T05:11:20;2.70;86.90
43651;DHT22;29247;50.944;5.382;2023-03-11T05:13:56;2.60;86.80
43651;DHT22;29247;50.944;5.382;2023-03-11T05:16:24;2.60;86.80
43651;DHT22;29247;50.944;5.382;2023-03-11T05:18:52;2.60;86.80
43651;DHT22;29247;50.944;5.382;2023-03-11T05:21:18;2.60;86.80
43651;DHT22;29247;50.944;5.382;2023-03-11T05:23:43;2.60;87.00
43651;DHT22;29247;50.944;5.382;2023-03-11T05:26:10;2.60;87.00
43651;DHT22;29247;50.944;5.382;2023-03-11T05:28:36;2.60;87.00
43651;DHT22;29247;50.944;5.382;2023-03-11T05:31:08;2.60;87.00
43651;DHT22;29247;50.944;5.382;2023-03-11T05:33:37;2.60;87.10
43651;DHT22;29247;50.944;5.382;2023-03-11T05:36:09;2.60;87.10
43651;DHT22;29247;50.944;5.382;2023-03-11T05:38:37;2.60;87.10
43651;DHT22;29247;50.944;5.382;2023-03-11T05:41:05;2.50;87.00
43651;DHT22;29247;50.944;5.382;2023-03-11T05:43:31;2.60;86.90
43651;DHT22;29247;50.944;5.382;2023-03-11T05:45:56;2.50;86.80
43651;DHT22;29247;50.944;5.382;2023-03-11T05:48:22;2.50;87.00
43651;DHT22;29247;50.944;5.382;2023-03-11T05:50:48;2.40;87.00
43651;DHT22;29247;50.944;5.382;2023-03-11T05:53:13;2.40;87.00
43651;DHT22;29247;50.944;5.382;2023-03-11T05:55:41;2.40;87.10
43651;DHT22;29247;50.944;5.382;2023-03-11T05:58:07;2.40;87.10
43651;DHT22;29247;50.944;5.382;2023-03-11T06:00:35;2.40;87.10
43651;DHT22;29247;50.944;5.382;2023-03-11T06:03:01;2.40;87.10
43651;DHT22;29247;50.944;5.382;2023-03-11T06:05:29;2.40;87.10
43651;DHT22;29247;50.944;5.382;2023-03-11T06:07:54;2.40;87.30
43651;DHT22;29247;50.944;5.382;2023-03-11T06:10:22;2.40;87.30
43651;DHT22;29247;50.944;5.382;2023-03-11T06:12:50;2.40;87.30
43651;DHT22;29247;50.944;5.382;2023-03-11T06:15:18;2.40;87.40
43651;DHT22;29247;50.944;5.382;2023-03-11T06:17:43;2.40;87.50
43651;DHT22;29247;50.944;5.382;2023-03-11T06:20:10;2.40;87.50
43651;DHT22;29247;50.944;5.382;2023-03-11T06:22:35;2.40;87.50
43651;DHT22;29247;50.944;5.382;2023-03-11T06:25:03;2.40;87.40
43651;DHT22;29247;50.944;5.382;2023-03-11T06:27:31;2.40;87.30
43651;DHT22;29247;50.944;5.382;2023-03-11T06:29:57;2.40;87.40
43651;DHT22;29247;50.944;5.382;2023-03-11T06:32:25;2.40;87.50
43651;DHT22;29247;50.944;5.382;2023-03-11T06:34:51;2.40;87.60
43651;DHT22;29247;50.944;5.382;2023-03-11T06:37:17;2.40;87.60
43651;DHT22;29247;50.944;5.382;2023-03-11T06:39:46;2.50;87.70
43651;DHT22;29247;50.944;5.382;2023-03-11T06:42:16;2.50;87.70
43651;DHT22;29247;50.944;5.382;2023-03-11T06:44:42;2.50;87.80
43651;DHT22;29247;50.944;5.382;2023-03-11T06:47:10;2.50;87.80
43651;DHT22;29247;50.944;5.382;2023-03-11T06:49:37;2.50;87.80
43651;DHT22;29247;50.944;5.382;2023-03-11T06:52:08;2.60;87.80
43651;DHT22;29247;50.944;5.382;2023-03-11T06:54:37;2.50;87.70
43651;DHT22;29247;50.944;5.382;2023-03-11T06:57:06;2.50;87.50
43651;DHT22;29247;50.944;5.382;2023-03-11T06:59:35;2.50;87.50
43651;DHT22;29247;50.944;5.382;2023-03-11T07:02:04;2.50;87.40
43651;DHT22;29247;50.944;5.382;2023-03-11T07:04:32;2.50;87.40
43651;DHT22;29247;50.944;5.382;2023-03-11T07:06:58;2.50;87.40
43651;DHT22;29247;50.944;5.382;2023-03-11T07:09:24;2.50;87.50
43651;DHT22;29247;50.944;5.382;2023-03-11T07:11:56;2.50;87.60
43651;DHT22;29247;50.944;5.382;2023-03-11T07:14:22;2.40;87.60
43651;DHT22;29247;50.944;5.382;2023-03-11T07:16:48;2.40;87.60
43651;DHT22;29247;50.944;5.382;2023-03-11T07:19:14;2.50;87.90
43651;DHT22;29247;50.944;5.382;2023-03-11T07:21:42;2.50;87.80
43651;DHT22;29247;50.944;5.382;2023-03-11T07:24:11;2.50;87.90
43651;DHT22;29247;50.944;5.382;2023-03-11T07:26:37;2.60;88.00
43651;DHT22;29247;50.944;5.382;2023-03-11T07:29:03;2.60;88.10
43651;DHT22;29247;50.944;5.382;2023-03-11T07:31:31;2.60;88.20
43651;DHT22;29247;50.944;5.382;2023-03-11T07:34:03;2.70;88.20
43651;DHT22;29247;50.944;5.382;2023-03-11T07:36:29;2.70;88.10
43651;DHT22;29247;50.944;5.382;2023-03-11T07:39:03;2.80;88.10
43651;DHT22;29247;50.944;5.382;2023-03-11T07:41:31;2.80;88.40
43651;DHT22;29247;50.944;5.382;2023-03-11T07:43:59;2.80;88.40
43651;DHT22;29247;50.944;5.382;2023-03-11T07:46:28;2.80;88.50
43651;DHT22;29247;50.944;5.382;2023-03-11T07:48:56;2.90;88.60
43651;DHT22;29247;50.944;5.382;2023-03-11T07:51:27;2.90;88.70
43651;DHT22;29247;50.944;5.382;2023-03-11T07:53:55;2.90;88.70
43651;DHT22;29247;50.944;5.382;2023-03-11T07:56:22;3.00;88.80
43651;DHT22;29247;50.944;5.382;2023-03-11T07:58:51;3.00;88.90
43651;DHT22;29247;50.944;5.382;2023-03-11T08:01:22;3.10;89.20
43651;DHT22;29247;50.944;5.382;2023-03-11T08:03:48;3.10;89.30
43651;DHT22;29247;50.944;5.382;2023-03-11T08:06:20;3.20;89.20
43651;DHT22;29247;50.944;5.382;2023-03-11T08:08:47;3.30;89.30
43651;DHT22;29247;50.944;5.382;2023-03-11T08:11:17;3.30;89.60
43651;DHT22;29247;50.944;5.382;2023-03-11T08:13:47;3.30;90.20
43651;DHT22;29247;50.944;5.382;2023-03-11T08:16:15;3.40;90.00
43651;DHT22;29247;50.944;5.382;2023-03-11T08:18:42;3.50;90.00
43651;DHT22;29247;50.944;5.382;2023-03-11T08:21:11;3.50;90.10
43651;DHT22;29247;50.944;5.382;2023-03-11T08:23:37;3.60;90.00
43651;DHT22;29247;50.944;5.382;2023-03-11T08:26:10;3.70;90.00
43651;DHT22;29247;50.944;5.382;2023-03-11T08:28:36;3.70;90.00
43651;DHT22;29247;50.944;5.382;2023-03-11T08:31:02;3.80;90.00
43651;DHT22;29247;50.944;5.382;2023-03-11T08:33:41;3.90;90.00
43651;DHT22;29247;50.944;5.382;2023-03-11T08:36:12;3.90;90.10
43651;DHT22;29247;50.944;5.382;2023-03-11T08:38:38;4.00;90.20
43651;DHT22;29247;50.944;5.382;2023-03-11T08:41:04;4.10;90.20
43651;DHT22;29247;50.944;5.382;2023-03-11T08:43:32;4.20;90.10
43651;DHT22;29247;50.944;5.382;2023-03-11T08:46:02;4.30;90.00
43651;DHT22;29247;50.944;5.382;2023-03-11T08:48:28;4.40;90.00
43651;DHT22;29247;50.944;5.382;2023-03-11T08:50:58;4.40;89.70
43651;DHT22;29247;50.944;5.382;2023-03-11T08:53:29;4.50;89.80
43651;DHT22;29247;50.944;5.382;2023-03-11T08:55:55;4.70;89.80
43651;DHT22;29247;50.944;5.382;2023-03-11T08:58:20;4.70;89.30
43651;DHT22;29247;50.944;5.382;2023-03-11T09:00:46;4.80;88.60
43651;DHT22;29247;50.944;5.382;2023-03-11T09:03:12;4.90;87.90
43651;DHT22;29247;50.944;5.382;2023-03-11T09:05:38;4.90;87.50
43651;DHT22;29247;50.944;5.382;2023-03-11T09:08:06;5.00;87.20
43651;DHT22;29247;50.944;5.382;2023-03-11T09:10:32;5.10;86.80
43651;DHT22;29247;50.944;5.382;2023-03-11T09:12:57;5.20;86.60
43651;DHT22;29247;50.944;5.382;2023-03-11T09:15:23;5.20;86.50
43651;DHT22;29247;50.944;5.382;2023-03-11T09:17:49;5.40;86.20
43651;DHT22;29247;50.944;5.382;2023-03-11T09:20:16;5.50;86.10
43651;DHT22;29247;50.944;5.382;2023-03-11T09:22:42;5.60;85.60
43651;DHT22;29247;50.944;5.382;2023-03-11T09:25:10;5.70;84.60
43651;DHT22;29247;50.944;5.382;2023-03-11T09:27:39;5.70;84.10
43651;DHT22;29247;50.944;5.382;2023-03-11T09:30:06;5.80;83.70
43651;DHT22;29247;50.944;5.382;2023-03-11T09:32:34;5.80;83.40
43651;DHT22;29247;50.944;5.382;2023-03-11T09:35:05;5.90;83.70
43651;DHT22;29247;50.944;5.382;2023-03-11T09:37:30;6.00;83.70
43651;DHT22;29247;50.944;5.382;2023-03-11T09:39:56;6.10;83.80
43651;DHT22;29247;50.944;5.382;2023-03-11T09:50:25;6.60;81.30
43651;DHT22;29247;50.944;5.382;2023-03-11T09:55:54;6.70;80.00
43651;DHT22;29247;50.944;5.382;2023-03-11T10:00:55;7.00;79.90
43651;DHT22;29247;50.944;5.382;2023-03-11T10:03:41;7.10;78.10
43651;DHT22;29247;50.944;5.382;2023-03-11T10:06:19;7.20;78.20
43651;DHT22;29247;50.944;5.382;2023-03-11T10:16:53;7.40;73.70
43651;DHT22;29247;50.944;5.382;2023-03-11T10:25:13;7.30;67.70
43651;DHT22;29247;50.944;5.382;2023-03-11T10:28:08;7.30;66.80
43651;DHT22;29247;50.944;5.382;2023-03-11T10:30:42;7.40;67.30
43651;DHT22;29247;50.944;5.382;2023-03-11T10:33:33;7.40;66.60
43651;DHT22;29247;50.944;5.382;2023-03-11T10:36:08;7.50;65.70
43651;DHT22;29247;50.944;5.382;2023-03-11T10:38:47;7.50;65.00
43651;DHT22;29247;50.944;5.382;2023-03-11T10:41:31;7.50;64.00
43651;DHT22;29247;50.944;5.382;2023-03-11T10:44:05;7.40;62.20
43651;DHT22;29247;50.944;5.382;2023-03-11T10:46:34;7.40;61.70
43651;DHT22;29247;50.944;5.382;2023-03-11T10:49:00;7.40;62.10
43651;DHT22;29247;50.944;5.382;2023-03-11T10:51:33;7.40;62.40
43651;DHT22;29247;50.944;5.382;2023-03-11T10:54:02;7.50;62.70
43651;DHT22;29247;50.944;5.382;2023-03-11T10:56:39;7.50;62.20
43651;DHT22;29247;50.944;5.382;2023-03-11T10:59:44;7.50;62.80
43651;DHT22;29247;50.944;5.382;2023-03-11T11:02:30;7.60;63.20
43651;DHT22;29247;50.944;5.382;2023-03-11T11:07:37;7.90;64.20
43651;DHT22;29247;50.944;5.382;2023-03-11T11:10:22;8.00;64.30
43651;DHT22;29247;50.944;5.382;2023-03-11T11:15:33;8.30;64.20
43651;DHT22;29247;50.944;5.382;2023-03-11T11:18:13;8.40;64.50
43651;DHT22;29247;50.944;5.382;2023-03-11T11:20:55;8.50;64.60
43651;DHT22;29247;50.944;5.382;2023-03-11T11:23:31;8.70;63.60
43651;DHT22;29247;50.944;5.382;2023-03-11T11:26:01;8.70;62.80
43651;DHT22;29247;50.944;5.382;2023-03-11T11:28:31;8.70;62.30
43651;DHT22;29247;50.944;5.382;2023-03-11T11:31:01;8.80;62.50
43651;DHT22;29247;50.944;5.382;2023-03-11T11:33:35;8.90;61.20
43651;DHT22;29247;50.944;5.382;2023-03-11T11:36:03;8.90;60.50
43651;DHT22;29247;50.944;5.382;2023-03-11T11:38:34;8.90;60.90
43651;DHT22;29247;50.944;5.382;2023-03-11T11:41:04;9.00;59.80
43651;DHT22;29247;50.944;5.382;2023-03-11T11:46:27;9.00;60.00
43651;DHT22;29247;50.944;5.382;2023-03-11T11:49:04;9.10;60.10
43651;DHT22;29247;50.944;5.382;2023-03-11T11:54:59;9.00;58.20
43651;DHT22;29247;50.944;5.382;2023-03-11T11:57:26;9.00;56.80
43651;DHT22;29247;50.944;5.382;2023-03-11T11:59:54;9.00;56.40
43651;DHT22;29247;50.944;5.382;2023-03-11T12:05:14;9.10;57.20
43651;DHT22;29247;50.944;5.382;2023-03-11T12:10:28;9.30;58.00
43651;DHT22;29247;50.944;5.382;2023-03-11T12:26:46;9.50;57.30
43651;DHT22;29247;50.944;5.382;2023-03-11T12:29:35;9.50;57.20
43651;DHT22;29247;50.944;5.382;2023-03-11T12:32:05;9.50;56.60
43651;DHT22;29247;50.944;5.382;2023-03-11T12:34:35;9.50;56.20
43651;DHT22;29247;50.944;5.382;2023-03-11T12:37:01;9.50;55.70
43651;DHT22;29247;50.944;5.382;2023-03-11T12:39:37;9.50;55.80
43651;DHT22;29247;50.944;5.382;2023-03-11T12:42:19;9.50;54.80
43651;DHT22;29247;50.944;5.382;2023-03-11T12:44:47;9.40;54.20
43651;DHT22;29247;50.944;5.382;2023-03-11T12:47:18;9.40;54.50
43651;DHT22;29247;50.944;5.382;2023-03-11T12:49:49;9.40;54.70
43651;DHT22;29247;50.944;5.382;2023-03-11T12:52:20;9.40;54.60
43651;DHT22;29247;50.944;5.382;2023-03-11T12:54:49;9.40;54.70
43651;DHT22;29247;50.944;5.382;2023-03-11T12:57:52;9.40;54.20
43651;DHT22;29247;50.944;5.382;2023-03-11T13:05:49;9.30;53.20
43651;DHT22;29247;50.944;5.382;2023-03-11T13:08:19;9.30;53.20
43651;DHT22;29247;50.944;5.382;2023-03-11T13:10:54;9.20;53.70
43651;DHT22;29247;50.944;5.382;2023-03-11T13:13:28;9.20;54.40
43651;DHT22;29247;50.944;5.382;2023-03-11T13:18:46;9.30;54.60
43651;DHT22;29247;50.944;5.382;2023-03-11T13:29:46;9.20;55.10
43651;DHT22;29247;50.944;5.382;2023-03-11T13:34:59;9.10;54.30
43651;DHT22;29247;50.944;5.382;2023-03-11T13:40:48;9.00;53.50
43651;DHT22;29247;50.944;5.382;2023-03-11T13:43:14;9.00;53.60
43651;DHT22;29247;50.944;5.382;2023-03-11T13:48:43;9.00;54.20
43651;DHT22;29247;50.944;5.382;2023-03-11T13:51:26;8.90;54.50
43651;DHT22;29247;50.944;5.382;2023-03-11T13:54:18;8.90;55.40
43651;DHT22;29247;50.944;5.382;2023-03-11T13:56:51;9.00;54.90
43651;DHT22;29247;50.944;5.382;2023-03-11T13:59:23;9.00;55.10
43651;DHT22;29247;50.944;5.382;2023-03-11T14:04:31;8.90;55.20
43651;DHT22;29247;50.944;5.382;2023-03-11T14:07:32;9.00;55.40
43651;DHT22;29247;50.944;5.382;2023-03-11T14:12:36;9.10;55.50
43651;DHT22;29247;50.944;5.382;2023-03-11T14:15:05;9.10;55.60
43651;DHT22;29247;50.944;5.382;2023-03-11T14:17:31;9.10;55.50
43651;DHT22;29247;50.944;5.382;2023-03-11T14:20:09;9.10;55.60
43651;DHT22;29247;50.944;5.382;2023-03-11T14:22:36;9.10;55.50
43651;DHT22;29247;50.944;5.382;2023-03-11T14:25:09;9.10;54.70
43651;DHT22;29247;50.944;5.382;2023-03-11T14:27:39;9.00;54.80
43651;DHT22;29247;50.944;5.382;2023-03-11T14:30:19;9.00;55.00
43651;DHT22;29247;50.944;5.382;2023-03-11T14:33:21;9.00;54.90
43651;DHT22;29247;50.944;5.382;2023-03-11T14:35:55;9.00;54.40
43651;DHT22;29247;50.944;5.382;2023-03-11T14:38:24;9.00;53.80
43651;DHT22;29247;50.944;5.382;2023-03-11T14:40:53;8.90;53.40
43651;DHT22;29247;50.944;5.382;2023-03-11T14:43:20;8.90;53.30
43651;DHT22;29247;50.944;5.382;2023-03-11T14:45:48;8.80;53.60
43651;DHT22;29247;50.944;5.382;2023-03-11T14:48:39;8.80;53.70
43651;DHT22;29247;50.944;5.382;2023-03-11T14:51:13;8.80;53.70
43651;DHT22;29247;50.944;5.382;2023-03-11T14:53:52;8.70;52.40
43651;DHT22;29247;50.944;5.382;2023-03-11T14:56:21;8.70;52.40
43651;DHT22;29247;50.944;5.382;2023-03-11T14:59:18;8.70;52.50
43651;DHT22;29247;50.944;5.382;2023-03-11T15:01:50;8.70;53.00
43651;DHT22;29247;50.944;5.382;2023-03-11T15:04:30;8.70;53.30
43651;DHT22;29247;50.944;5.382;2023-03-11T15:06:57;8.70;53.90
43651;DHT22;29247;50.944;5.382;2023-03-11T15:09:26;8.70;53.60
43651;DHT22;29247;50.944;5.382;2023-03-11T15:12:00;8.70;53.90
43651;DHT22;29247;50.944;5.382;2023-03-11T15:14:32;8.70;54.20
43651;DHT22;29247;50.944;5.382;2023-03-11T15:19:37;8.60;54.90
43651;DHT22;29247;50.944;5.382;2023-03-11T15:25:00;8.50;55.10
43651;DHT22;29247;50.944;5.382;2023-03-11T15:27:37;8.50;55.20
43651;DHT22;29247;50.944;5.382;2023-03-11T15:30:26;8.50;55.10
43651;DHT22;29247;50.944;5.382;2023-03-11T15:32:56;8.50;55.30
43651;DHT22;29247;50.944;5.382;2023-03-11T15:35:30;8.50;55.40
43651;DHT22;29247;50.944;5.382;2023-03-11T15:38:20;8.40;55.20
43651;DHT22;29247;50.944;5.382;2023-03-11T15:41:01;8.40;54.50
43651;DHT22;29247;50.944;5.382;2023-03-11T15:43:28;8.30;54.20
43651;DHT22;29247;50.944;5.382;2023-03-11T15:45:56;8.40;54.10
43651;DHT22;29247;50.944;5.382;2023-03-11T15:48:23;8.30;53.90
43651;DHT22;29247;50.944;5.382;2023-03-11T15:50:52;8.30;54.10
43651;DHT22;29247;50.944;5.382;2023-03-11T15:53:19;8.30;53.90
43651;DHT22;29247;50.944;5.382;2023-03-11T15:55:46;8.30;53.90
43651;DHT22;29247;50.944;5.382;2023-03-11T15:58:17;8.30;53.90
43651;DHT22;29247;50.944;5.382;2023-03-11T16:00:52;8.30;53.70
43651;DHT22;29247;50.944;5.382;2023-03-11T16:03:23;8.20;53.70
43651;DHT22;29247;50.944;5.382;2023-03-11T16:05:48;8.20;53.90
43651;DHT22;29247;50.944;5.382;2023-03-11T16:08:14;8.20;54.10
43651;DHT22;29247;50.944;5.382;2023-03-11T16:10:40;8.20;54.40
43651;DHT22;29247;50.944;5.382;2023-03-11T16:13:08;8.20;54.70
43651;DHT22;29247;50.944;5.382;2023-03-11T16:15:36;8.20;55.00
43651;DHT22;29247;50.944;5.382;2023-03-11T16:18:04;8.20;55.20
43651;DHT22;29247;50.944;5.382;2023-03-11T16:23:06;8.10;55.50
43651;DHT22;29247;50.944;5.382;2023-03-11T16:25:38;8.10;55.60
43651;DHT22;29247;50.944;5.382;2023-03-11T16:28:05;8.00;55.80
43651;DHT22;29247;50.944;5.382;2023-03-11T16:30:32;8.00;55.80
43651;DHT22;29247;50.944;5.382;2023-03-11T16:32:58;7.90;55.90
43651;DHT22;29247;50.944;5.382;2023-03-11T16:35:25;7.90;56.00
43651;DHT22;29247;50.944;5.382;2023-03-11T16:37:52;7.90;56.00
43651;DHT22;29247;50.944;5.382;2023-03-11T16:40:22;7.80;56.00
43651;DHT22;29247;50.944;5.382;2023-03-11T16:45:24;7.70;56.20
43651;DHT22;29247;50.944;5.382;2023-03-11T16:47:52;7.70;56.20
43651;DHT22;29247;50.944;5.382;2023-03-11T16:50:18;7.60;56.30
43651;DHT22;29247;50.944;5.382;2023-03-11T16:52:45;7.60;56.40
43651;DHT22;29247;50.944;5.382;2023-03-11T16:55:13;7.50;56.50
43651;DHT22;29247;50.944;5.382;2023-03-11T16:57:39;7.50;56.50
43651;DHT22;29247;50.944;5.382;2023-03-11T17:00:10;7.40;56.30
43651;DHT22;29247;50.944;5.382;2023-03-11T17:02:38;7.40;56.20
43651;DHT22;29247;50.944;5.382;2023-03-11T17:05:05;7.30;56.00
43651;DHT22;29247;50.944;5.382;2023-03-11T17:07:31;7.30;56.10
43651;DHT22;29247;50.944;5.382;2023-03-11T17:10:02;7.20;56.40
43651;DHT22;29247;50.944;5.382;2023-03-11T17:12:28;7.20;56.60
43651;DHT22;29247;50.944;5.382;2023-03-11T17:14:55;7.20;56.90
43651;DHT22;29247;50.944;5.382;2023-03-11T17:17:25;7.10;57.10
43651;DHT22;29247;50.944;5.382;2023-03-11T17:19:51;7.10;57.50
43651;DHT22;29247;50.944;5.382;2023-03-11T17:22:19;7.00;57.60
43651;DHT22;29247;50.944;5.382;2023-03-11T17:24:44;7.00;57.80
43651;DHT22;29247;50.944;5.382;2023-03-11T17:27:10;7.00;58.00
43651;DHT22;29247;50.944;5.382;2023-03-11T17:29:36;6.90;58.30
43651;DHT22;29247;50.944;5.382;2023-03-11T17:32:04;6.90;58.50
43651;DHT22;29247;50.944;5.382;2023-03-11T17:34:35;6.90;58.60
43651;DHT22;29247;50.944;5.382;2023-03-11T17:37:00;6.80;58.60
43651;DHT22;29247;50.944;5.382;2023-03-11T17:39:33;6.80;58.80
43651;DHT22;29247;50.944;5.382;2023-03-11T17:41:59;6.80;59.10